Time;durP1;ratioP1;P1;durP2;ratioP2;P2;SDS_P1;SDS_P2;PMS_P1;PMS_P2;Temp;Humidity;BMP_temperature;BMP_pressure;BME280_temperature;BME280_humidity;BME280_pressure;Samples;Min_cycle;Max_cycle;Signal;HPM_P1;HPM_P2
2021/12/17 00:00:05;;;;;;;30.60;13.90;;;9.50;1.00;;;;;;4975475;28;20800;-75
2021/12/17 00:05:42;;;;;;;24.90;13.17;;;9.50;1.00;;;;;;4973726;28;20405;-76
2021/12/17 00:08:10;;;;;;;26.57;14.27;;;9.50;1.00;;;;;;4973783;28;20397;-76
2021/12/17 00:10:47;;;;;;;27.63;14.80;;;9.50;1.00;;;;;;4986937;28;20417;-76
2021/12/17 00:13:13;;;;;;;25.23;13.67;;;9.40;1.00;;;;;;4984641;28;20416;-76
2021/12/17 00:15:47;;;;;;;31.17;14.90;;;9.40;1.00;;;;;;4975093;28;20964;-76
2021/12/17 00:18:41;;;;;;;25.60;15.17;;;9.50;1.00;;;;;;4985486;28;20464;-76
2021/12/17 00:49:05;;;;;;;30.50;13.97;;;9.40;1.00;;;;;;5090552;28;20412;-76
2021/12/17 00:54:18;;;;;;;26.00;13.13;;;9.40;1.00;;;;;;5087724;28;20434;-75
2021/12/17 00:56:44;;;;;;;25.33;13.20;;;9.30;1.00;;;;;;5082572;28;20412;-75
2021/12/17 00:59:10;;;;;;;22.63;12.70;;;9.30;1.00;;;;;;5092782;28;20444;-75
2021/12/17 01:01:36;;;;;;;26.50;13.20;;;9.30;1.00;;;;;;5084751;28;20416;-75
2021/12/17 01:04:02;;;;;;;21.80;12.30;;;9.40;1.00;;;;;;5073671;28;20191;-75
2021/12/17 01:06:34;;;;;;;25.37;13.87;;;9.40;1.00;;;;;;5081775;28;20177;-76
2021/12/17 01:09:06;;;;;;;27.57;14.23;;;9.40;1.00;;;;;;5090831;28;20413;-76
2021/12/17 01:11:32;;;;;;;26.70;15.00;;;9.40;1.00;;;;;;5072311;28;20421;-77
2021/12/17 01:14:04;;;;;;;24.53;14.00;;;9.40;1.00;;;;;;5077366;28;20408;-76
2021/12/17 01:16:34;;;;;;;27.83;13.50;;;9.30;1.00;;;;;;5082875;28;20437;-76
2021/12/17 01:22:02;;;;;;;22.67;13.10;;;9.30;1.00;;;;;;5087735;28;20894;-76
2021/12/17 01:35:58;;;;;;;24.40;13.07;;;9.30;1.00;;;;;;5082464;28;20423;-76
2021/12/17 01:44:46;;;;;;;23.30;13.30;;;9.30;1.00;;;;;;5011484;28;20797;-76
2021/12/17 01:47:16;;;;;;;25.43;13.73;;;9.30;1.00;;;;;;5007759;28;20518;-76
2021/12/17 02:00:44;;;;;;;22.80;12.77;;;9.20;1.00;;;;;;5010693;28;20530;-75
2021/12/17 02:03:11;;;;;;;24.40;11.97;;;9.20;1.00;;;;;;5011512;28;20420;-75
2021/12/17 02:05:40;;;;;;;20.50;11.87;;;9.20;1.00;;;;;;5026597;28;20426;-75
2021/12/17 02:08:34;;;;;;;27.10;12.37;;;9.20;1.00;;;;;;5031767;28;20399;-76
2021/12/17 02:20:09;;;;;;;25.30;12.00;;;9.20;1.00;;;;;;5067884;28;20471;-76
2021/12/17 02:28:40;;;;;;;26.20;13.23;;;9.20;1.00;;;;;;5084746;28;20928;-75
2021/12/17 02:28:53;;;;;;;28.20;12.30;;;9.10;1.00;;;;;;5077606;28;20456;-75
2021/12/17 02:33:48;;;;;;;21.37;11.93;;;9.10;1.00;;;;;;5076539;28;20826;-76
2021/12/17 02:36:18;;;;;;;22.43;12.00;;;9.20;1.00;;;;;;5076754;28;20397;-76
2021/12/17 02:38:46;;;;;;;22.93;10.93;;;9.80;1.00;;;;;;5089450;28;20222;-75
2021/12/17 02:46:58;;;;;;;18.43;10.60;;;9.20;1.00;;;;;;5084690;28;20438;-77
2021/12/17 02:49:26;;;;;;;18.70;11.67;;;9.20;1.00;;;;;;5092289;28;20420;-75
2021/12/17 02:51:53;;;;;;;20.33;11.00;;;9.20;1.00;;;;;;5083213;28;20220;-75
2021/12/17 02:54:19;;;;;;;22.60;11.63;;;9.20;1.00;;;;;;5091667;28;20419;-76
2021/12/17 02:56:46;;;;;;;19.17;10.87;;;9.20;1.00;;;;;;5096370;28;20397;-76
2021/12/17 02:59:16;;;;;;;18.83;10.90;;;9.20;1.00;;;;;;5096123;28;20428;-76
2021/12/17 03:01:47;;;;;;;20.67;11.70;;;9.20;1.00;;;;;;5093383;28;20412;-76
2021/12/17 03:04:14;;;;;;;18.20;10.10;;;9.20;1.00;;;;;;5087508;28;20427;-76
2021/12/17 03:06:41;;;;;;;20.67;11.30;;;9.50;1.00;;;;;;5088255;28;20414;-76
2021/12/17 03:09:10;;;;;;;19.37;10.07;;;9.20;1.00;;;;;;5076074;28;20421;-75
2021/12/17 03:11:52;;;;;;;22.67;10.67;;;11.30;1.00;;;;;;5075832;28;20392;-75
2021/12/17 03:14:21;;;;;;;14.70;9.60;;;9.20;1.00;;;;;;5082606;28;20787;-75
2021/12/17 03:17:05;;;;;;;31.40;11.77;;;9.20;1.00;;;;;;5081758;28;20409;-76
2021/12/17 03:25:21;;;;;;;19.10;9.67;;;9.20;1.00;;;;;;5088936;28;20423;-75
2021/12/17 03:28:16;;;;;;;19.53;9.77;;;9.20;1.00;;;;;;5075739;28;20408;-75
2021/12/17 03:30:42;;;;;;;22.33;9.27;;;9.20;1.00;;;;;;5083793;28;20450;-75
2021/12/17 03:33:10;;;;;;;18.80;9.77;;;9.10;1.00;;;;;;5085447;28;20467;-75
2021/12/17 03:35:35;;;;;;;14.23;8.93;;;9.10;1.00;;;;;;5075090;28;20450;-76
2021/12/17 03:38:05;;;;;;;12.70;8.30;;;9.10;1.00;;;;;;5075873;28;20390;-75
2021/12/17 03:40:32;;;;;;;17.63;8.83;;;9.10;1.00;;;;;;5075381;28;20151;-75
2021/12/17 03:43:24;;;;;;;24.17;9.80;;;9.20;1.00;;;;;;5091080;28;20416;-76
2021/12/17 03:45:49;;;;;;;17.40;8.77;;;9.20;1.00;;;;;;5081331;28;20418;-75
2021/12/17 03:48:16;;;;;;;17.20;9.87;;;9.10;1.00;;;;;;5074807;28;20425;-76
2021/12/17 03:50:52;;;;;;;13.47;7.77;;;9.10;1.00;;;;;;5084840;28;20174;-75
2021/12/17 03:53:17;;;;;;;14.37;8.00;;;9.10;1.00;;;;;;5081989;28;21069;-75
2021/12/17 03:55:46;;;;;;;17.03;9.23;;;9.10;1.00;;;;;;5081304;28;20423;-76
2021/12/17 03:58:17;;;;;;;16.47;8.03;;;9.10;1.00;;;;;;5074950;28;20191;-76
2021/12/17 04:00:47;;;;;;;13.27;7.30;;;9.00;1.00;;;;;;5074659;28;20926;-76
2021/12/17 04:03:28;;;;;;;13.33;7.10;;;9.00;1.00;;;;;;5095556;28;20928;-76
2021/12/17 04:05:54;;;;;;;15.30;7.23;;;8.90;1.00;;;;;;5074904;28;20413;-76
2021/12/17 04:08:35;;;;;;;13.30;7.13;;;8.90;1.00;;;;;;5074613;28;20483;-76
2021/12/17 04:11:06;;;;;;;15.33;8.10;;;8.90;1.00;;;;;;5080824;28;20485;-76
2021/12/17 04:13:38;;;;;;;15.77;7.80;;;8.80;1.00;;;;;;5081253;28;20449;-76
2021/12/17 04:16:10;;;;;;;13.43;7.60;;;8.70;1.00;;;;;;5085192;28;20420;-76
2021/12/17 04:18:41;;;;;;;10.23;6.70;;;8.70;1.00;;;;;;5074448;28;20471;-76
2021/12/17 04:21:14;;;;;;;13.80;7.53;;;8.60;1.00;;;;;;5074353;28;20472;-76
2021/12/17 04:23:58;;;;;;;12.17;7.60;;;8.50;1.00;;;;;;5088371;28;20495;-75
2021/12/17 04:26:34;;;;;;;13.77;7.13;;;8.50;1.00;;;;;;5081052;28;20405;-75
2021/12/17 04:28:59;;;;;;;10.80;6.67;;;8.40;1.00;;;;;;5082160;28;20408;-75
2021/12/17 04:31:29;;;;;;;12.33;7.10;;;8.40;1.00;;;;;;5093601;28;20521;-75
2021/12/17 04:33:55;;;;;;;11.97;6.00;;;8.30;1.00;;;;;;5082529;28;20190;-75
2021/12/17 04:36:27;;;;;;;15.10;6.53;;;8.30;1.00;;;;;;5080902;28;20745;-75
2021/12/17 04:39:10;;;;;;;11.63;6.10;;;8.30;1.00;;;;;;5084096;28;20769;-75
2021/12/17 04:41:54;;;;;;;12.30;7.33;;;8.30;1.00;;;;;;5087618;28;20440;-76
2021/12/17 04:44:32;;;;;;;18.50;7.80;;;8.30;1.00;;;;;;5074008;28;20409;-76
2021/12/17 04:57:56;;;;;;;9.77;6.60;;;8.00;1.00;;;;;;5090693;28;20969;-76
2021/12/17 05:00:25;;;;;;;17.53;6.50;;;8.00;1.00;;;;;;5074006;28;20389;-75
2021/12/17 05:03:04;;;;;;;11.27;6.43;;;8.00;1.00;;;;;;5078967;28;20493;-76
2021/12/17 05:05:31;;;;;;;8.57;6.00;;;7.90;1.00;;;;;;5079242;28;20439;-76
2021/12/17 05:08:05;;;;;;;12.73;6.43;;;7.90;1.00;;;;;;5085785;28;20416;-76
2021/12/17 05:19:03;;;;;;;10.17;5.80;;;7.80;1.00;;;;;;5073969;28;20448;-76
2021/12/17 05:21:40;;;;;;;13.70;7.33;;;7.80;1.00;;;;;;5092518;28;20412;-76
2021/12/17 05:24:10;;;;;;;11.73;6.30;;;7.80;1.00;;;;;;5073933;28;20977;-76
2021/12/17 05:26:40;;;;;;;8.37;5.67;;;7.80;1.00;;;;;;5088699;28;20764;-76
2021/12/17 05:29:10;;;;;;;10.97;6.03;;;7.70;1.00;;;;;;5091096;28;20453;-75
2021/12/17 05:31:46;;;;;;;9.90;6.07;;;7.80;1.00;;;;;;5073832;28;20404;-76
2021/12/17 05:34:16;;;;;;;10.67;6.23;;;7.80;1.00;;;;;;5079685;28;20962;-76
2021/12/17 05:36:46;;;;;;;14.00;5.47;;;7.80;1.00;;;;;;5077770;28;20437;-76
2021/12/17 05:39:11;;;;;;;12.00;6.30;;;7.80;1.00;;;;;;5081561;28;20464;-76
2021/12/17 05:41:40;;;;;;;10.63;6.20;;;7.80;1.00;;;;;;5078067;28;20396;-75
2021/12/17 05:44:10;;;;;;;10.13;5.83;;;7.90;1.00;;;;;;5077749;28;20167;-75
2021/12/17 05:46:58;;;;;;;8.27;5.23;;;7.80;1.00;;;;;;5076559;28;20401;-76
2021/12/17 05:49:25;;;;;;;10.77;5.93;;;7.80;1.00;;;;;;5092547;28;20807;-75
2021/12/17 05:51:53;;;;;;;7.90;5.90;;;7.80;1.00;;;;;;5085877;28;20420;-75
2021/12/17 05:54:22;;;;;;;9.87;4.83;;;7.90;1.00;;;;;;5081808;28;20411;-76
2021/12/17 05:56:47;;;;;;;9.07;5.70;;;7.90;1.00;;;;;;5083592;28;20428;-75
2021/12/17 05:59:14;;;;;;;12.73;5.63;;;7.90;1.00;;;;;;5081424;28;20914;-76
2021/12/17 06:01:40;;;;;;;17.27;5.47;;;8.00;1.00;;;;;;5092679;28;20640;-76
2021/12/17 06:04:06;;;;;;;8.53;5.70;;;8.00;1.00;;;;;;5086574;28;20421;-76
2021/12/17 06:06:37;;;;;;;9.80;5.73;;;8.00;1.00;;;;;;5080731;28;20409;-76
2021/12/17 06:09:06;;;;;;;7.77;4.67;;;8.00;1.00;;;;;;5080828;28;20167;-76
2021/12/17 06:11:35;;;;;;;11.43;5.80;;;8.00;1.00;;;;;;5078244;28;20929;-76
2021/12/17 06:14:05;;;;;;;6.63;4.43;;;8.10;1.00;;;;;;5081208;28;20488;-76
2021/12/17 06:16:33;;;;;;;10.20;5.00;;;8.10;1.00;;;;;;5088376;28;20409;-76
2021/12/17 06:19:04;;;;;;;7.07;5.07;;;8.20;1.00;;;;;;5077891;28;21137;-76
2021/12/17 06:21:30;;;;;;;5.67;4.50;;;8.20;1.00;;;;;;5076539;28;20413;-77
2021/12/17 06:24:04;;;;;;;5.70;3.83;;;8.20;1.00;;;;;;5093297;28;20465;-76
2021/12/17 06:26:30;;;;;;;7.73;3.97;;;8.20;1.00;;;;;;5094354;28;20170;-75
2021/12/17 06:28:58;;;;;;;6.80;4.37;;;8.20;1.00;;;;;;5075225;28;20915;-77
2021/12/17 06:31:28;;;;;;;6.40;4.30;;;8.20;1.00;;;;;;5076485;28;20951;-78
2021/12/17 06:33:53;;;;;;;5.73;3.90;;;8.20;1.00;;;;;;5089259;28;20888;-76
2021/12/17 06:36:19;;;;;;;7.03;4.17;;;8.20;1.00;;;;;;5079178;28;20440;-75
2021/12/17 06:38:52;;;;;;;7.07;3.93;;;8.20;1.00;;;;;;5092312;28;20199;-76
2021/12/17 06:41:45;;;;;;;11.33;4.20;;;8.20;1.00;;;;;;5093457;28;20505;-76
2021/12/17 06:44:14;;;;;;;7.80;3.73;;;8.30;1.00;;;;;;5075971;28;20417;-76
2021/12/17 06:46:56;;;;;;;6.40;4.43;;;8.30;1.00;;;;;;5076314;28;20428;-77
2021/12/17 06:55:43;;;;;;;6.57;4.47;;;8.20;1.00;;;;;;5084583;28;20434;-75
2021/12/17 07:32:48;;;;;;;8.07;4.83;;;8.10;1.00;;;;;;5080917;28;20431;-76
2021/12/17 07:40:31;;;;;;;6.90;4.17;;;8.10;1.00;;;;;;5078643;28;20496;-75
2021/12/17 07:42:57;;;;;;;7.27;4.57;;;8.20;1.00;;;;;;5077330;28;20458;-76
2021/12/17 07:45:23;;;;;;;6.83;3.90;;;8.20;1.00;;;;;;5074617;28;20421;-75
2021/12/17 07:47:58;;;;;;;8.00;5.00;;;8.30;1.00;;;;;;5085690;28;20985;-76
2021/12/17 07:50:28;;;;;;;13.17;4.33;;;8.30;1.00;;;;;;5074723;28;20404;-75
2021/12/17 07:52:54;;;;;;;4.60;3.73;;;8.40;1.00;;;;;;5090155;28;20429;-75
2021/12/17 07:55:28;;;;;;;6.50;4.23;;;8.40;1.00;;;;;;5083764;28;20421;-77
2021/12/17 07:57:54;;;;;;;8.60;4.73;;;8.50;1.00;;;;;;5078244;28;20170;-76
2021/12/17 08:00:22;;;;;;;4.70;4.30;;;8.50;1.00;;;;;;5084328;28;20448;-75
2021/12/17 08:02:52;;;;;;;5.03;4.07;;;8.50;1.00;;;;;;5091465;28;20439;-75
2021/12/17 08:05:18;;;;;;;9.40;4.90;;;8.50;1.00;;;;;;5079558;28;20421;-76
2021/12/17 08:07:46;;;;;;;7.40;4.20;;;8.60;1.00;;;;;;5078777;28;20441;-75
2021/12/17 08:10:16;;;;;;;4.17;3.77;;;8.60;1.00;;;;;;5087976;28;20404;-77
2021/12/17 08:12:42;;;;;;;7.07;4.73;;;8.70;1.00;;;;;;5079585;28;20912;-75
2021/12/17 08:15:30;;;;;;;9.77;4.70;;;8.70;1.00;;;;;;5080737;28;20451;-76
2021/12/17 08:23:58;;;;;;;7.00;4.30;;;8.80;1.00;;;;;;5076065;28;20419;-75
2021/12/17 08:26:13;;;;;;;5.50;3.53;;;8.90;1.00;;;;;;5084231;28;20412;-75
2021/12/17 08:31:40;;;;;;;6.53;4.50;;;9.00;1.00;;;;;;5074548;28;20441;-75
2021/12/17 08:34:05;;;;;;;8.07;4.00;;;9.10;1.00;;;;;;5077108;28;20893;-75
2021/12/17 08:36:31;;;;;;;10.07;4.43;;;9.10;1.00;;;;;;5082957;28;20519;-75
2021/12/17 08:38:57;;;;;;;6.77;3.50;;;9.20;1.00;;;;;;5081279;28;20194;-75
2021/12/17 08:41:23;;;;;;;6.97;4.07;;;9.20;1.00;;;;;;5073208;28;20174;-77
2021/12/17 08:43:49;;;;;;;5.50;3.90;;;9.30;1.00;;;;;;5080464;28;20787;-76
2021/12/17 08:46:15;;;;;;;10.20;4.63;;;9.30;1.00;;;;;;5072999;28;20171;-75
2021/12/17 08:48:46;;;;;;;5.73;4.27;;;9.40;1.00;;;;;;5078518;28;20185;-75
2021/12/17 08:51:16;;;;;;;6.07;4.23;;;9.40;1.00;;;;;;5077531;28;20428;-76
2021/12/17 08:53:42;;;;;;;7.70;5.47;;;9.50;1.00;;;;;;5077661;28;20440;-76
2021/12/17 08:56:13;;;;;;;12.53;4.63;;;9.50;1.00;;;;;;5092931;28;20503;-75
2021/12/17 08:58:39;;;;;;;8.73;4.60;;;9.60;1.00;;;;;;5093968;28;20210;-75
2021/12/17 09:01:05;;;;;;;6.23;4.97;;;9.60;1.00;;;;;;5088160;28;20451;-75
2021/12/17 09:03:33;;;;;;;11.50;5.43;;;9.70;1.00;;;;;;5080525;28;20167;-75
2021/12/17 09:05:59;;;;;;;6.03;4.90;;;9.80;1.00;;;;;;5078753;28;20409;-75
2021/12/17 09:08:25;;;;;;;10.43;5.53;;;9.90;1.00;;;;;;5082089;28;20401;-75
2021/12/17 09:10:55;;;;;;;6.87;4.70;;;12.50;1.00;;;;;;5072532;28;20827;-74
2021/12/17 09:13:27;;;;;;;7.83;4.70;;;10.10;1.00;;;;;;5073573;28;20149;-74
2021/12/17 09:16:05;;;;;;;9.90;5.03;;;10.10;1.00;;;;;;5076445;28;20495;-75
2021/12/17 09:18:34;;;;;;;10.40;4.70;;;10.20;1.00;;;;;;5080211;28;20961;-74
2021/12/17 09:21:01;;;;;;;7.00;4.73;;;10.30;1.00;;;;;;5082902;28;20502;-76
2021/12/17 09:23:26;;;;;;;8.23;5.20;;;10.30;1.00;;;;;;5092275;28;20507;-77
2021/12/17 09:25:53;;;;;;;6.50;4.50;;;10.30;1.00;;;;;;5095942;28;20521;-76
2021/12/17 09:28:18;;;;;;;13.53;5.70;;;10.20;1.00;;;;;;5081837;28;20975;-78
2021/12/17 09:30:44;;;;;;;7.67;5.27;;;10.30;1.00;;;;;;5080241;28;20456;-77
2021/12/17 09:33:09;;;;;;;11.80;5.07;;;10.40;1.00;;;;;;5087478;28;20257;-78
2021/12/17 09:35:35;;;;;;;6.70;4.10;;;10.40;1.00;;;;;;5077853;28;20194;-77
2021/12/17 09:38:01;;;;;;;5.90;3.83;;;10.50;1.00;;;;;;5080857;28;20257;-77
2021/12/17 09:40:27;;;;;;;7.00;4.90;;;;;;;;;;5082425;28;20201;-77
2021/12/17 09:42:58;;;;;;;7.73;4.73;;;10.60;1.00;;;;;;5089472;28;20181;-77
2021/12/17 09:45:23;;;;;;;7.57;4.90;;;10.60;1.00;;;;;;5080435;28;20417;-77
2021/12/17 09:47:49;;;;;;;9.30;5.30;;;11.00;1.00;;;;;;5078677;28;20486;-77
2021/12/17 09:50:18;;;;;;;12.40;4.73;;;10.50;1.00;;;;;;5076277;28;20187;-77
2021/12/17 09:52:44;;;;;;;6.60;4.93;;;10.40;1.00;;;;;;5079073;28;20174;-77
2021/12/17 09:55:11;;;;;;;6.63;4.97;;;10.80;1.00;;;;;;5080810;28;20428;-77
2021/12/17 09:57:37;;;;;;;8.30;5.40;;;10.40;1.00;;;;;;5084120;28;20418;-76
2021/12/17 10:00:16;;;;;;;7.27;5.07;;;10.30;1.00;;;;;;5082104;28;20550;-76
2021/12/17 10:02:48;;;;;;;10.60;4.67;;;10.30;1.00;;;;;;5078572;28;20163;-76
2021/12/17 10:05:22;;;;;;;6.00;4.50;;;10.20;1.00;;;;;;5087188;28;20451;-76
2021/12/17 10:07:54;;;;;;;11.20;5.33;;;10.20;1.00;;;;;;5096149;28;20678;-75
2021/12/17 10:10:20;;;;;;;10.63;4.63;;;10.20;1.00;;;;;;5093421;28;20428;-75
2021/12/17 10:12:47;;;;;;;11.73;5.70;;;10.20;1.00;;;;;;5083936;28;20790;-76
2021/12/17 10:15:17;;;;;;;6.77;4.50;;;10.20;1.00;;;;;;5096003;28;20685;-76
2021/12/17 10:18:00;;;;;;;7.10;4.67;;;10.20;1.00;;;;;;5078333;28;20417;-76
2021/12/17 10:20:28;;;;;;;10.17;5.87;;;10.20;1.00;;;;;;5076286;28;20423;-76
2021/12/17 10:23:01;;;;;;;18.53;5.53;;;10.30;1.00;;;;;;5077179;28;20421;-76
2021/12/17 10:25:28;;;;;;;5.33;4.30;;;10.20;1.00;;;;;;5076660;28;21011;-76
2021/12/17 10:27:57;;;;;;;8.27;5.47;;;10.10;1.00;;;;;;5076165;28;20904;-75
2021/12/17 10:30:24;;;;;;;10.03;5.43;;;10.10;1.00;;;;;;5078114;28;20436;-75
2021/12/17 10:32:54;;;;;;;10.50;6.00;;;10.10;1.00;;;;;;5086378;28;20434;-76
2021/12/17 10:35:29;;;;;;;14.53;5.10;;;10.10;1.00;;;;;;5074169;28;20539;-76
2021/12/17 10:38:00;;;;;;;8.33;5.30;;;10.10;1.00;;;;;;5075421;28;20419;-76
2021/12/17 10:40:39;;;;;;;6.80;5.00;;;10.20;1.00;;;;;;5075671;28;20982;-75
2021/12/17 10:46:32;;;;;;;10.43;5.33;;;10.00;1.00;;;;;;5032968;28;20490;-77
2021/12/17 10:54:15;;;;;;;7.03;4.53;;;10.10;1.00;;;;;;5031880;28;20439;-77
2021/12/17 10:56:46;;;;;;;10.03;4.63;;;10.40;1.00;;;;;;5030403;28;20420;-76
2021/12/17 10:59:26;;;;;;;7.80;5.03;;;10.40;1.00;;;;;;5032296;28;20481;-76
2021/12/17 11:01:59;;;;;;;7.80;4.63;;;10.40;1.00;;;;;;5029387;28;20447;-76
2021/12/17 11:04:28;;;;;;;5.93;4.00;;;10.50;1.00;;;;;;5022139;28;20447;-77
2021/12/17 11:07:16;;;;;;;8.37;4.93;;;10.40;1.00;;;;;;5031806;28;20419;-77
2021/12/17 11:10:00;;;;;;;4.83;3.37;;;10.40;1.00;;;;;;5026273;28;20562;-77
2021/12/17 11:12:34;;;;;;;4.53;3.80;;;10.50;1.00;;;;;;5026523;28;20433;-77
2021/12/17 11:15:11;;;;;;;7.33;3.80;;;10.60;1.00;;;;;;5031393;28;20460;-78
2021/12/17 11:17:38;;;;;;;6.17;3.63;;;10.70;1.00;;;;;;5019301;28;20427;-78
2021/12/17 11:20:10;;;;;;;5.70;3.90;;;10.70;1.00;;;;;;5016741;28;21306;-77
2021/12/17 11:22:38;;;;;;;3.37;3.00;;;10.70;1.00;;;;;;5050659;28;20436;-79
2021/12/17 11:25:04;;;;;;;4.93;3.10;;;10.80;1.00;;;;;;5082043;28;20425;-79
2021/12/17 11:27:31;;;;;;;7.33;3.87;;;10.80;1.00;;;;;;5085561;28;21006;-74
2021/12/17 11:29:58;;;;;;;6.20;3.40;;;11.00;1.00;;;;;;5084477;28;20436;-77
2021/12/17 11:32:24;;;;;;;5.40;3.90;;;11.00;1.00;;;;;;5086029;28;20427;-75
2021/12/17 11:34:50;;;;;;;3.20;2.90;;;10.80;1.00;;;;;;5083265;28;20436;-75
2021/12/17 11:37:17;;;;;;;3.90;2.70;;;10.80;1.00;;;;;;5084764;28;20911;-75
2021/12/17 11:39:55;;;;;;;4.57;3.43;;;10.80;1.00;;;;;;5088999;28;20194;-75
2021/12/17 11:43:04;;;;;;;4.67;3.20;;;10.80;1.00;;;;;;5082398;28;20906;-77
2021/12/17 11:45:34;;;;;;;2.60;2.40;;;10.90;1.00;;;;;;5082505;28;20420;-77
2021/12/17 11:48:39;;;;;;;4.63;3.00;;;10.90;1.00;;;;;;5080826;28;20950;-77
2021/12/17 11:51:17;;;;;;;15.13;2.90;;;11.00;1.00;;;;;;5087953;28;20425;-78
2021/12/17 11:53:55;;;;;;;3.53;2.47;;;10.50;1.00;;;;;;5086208;28;20420;-77
2021/12/17 11:56:50;;;;;;;5.30;2.93;;;10.60;1.00;;;;;;5087666;28;20419;-77
2021/12/17 11:59:30;;;;;;;5.17;2.80;;;10.60;1.00;;;;;;5074352;28;20917;-77
2021/12/17 12:02:19;;;;;;;5.47;3.20;;;10.50;1.00;;;;;;5082403;28;20934;-77
2021/12/17 12:04:59;;;;;;;6.10;3.10;;;10.10;1.00;;;;;;5076055;28;20994;-77
2021/12/17 12:07:25;;;;;;;10.33;3.53;;;10.20;1.00;;;;;;5078040;28;20432;-77
2021/12/17 12:10:19;;;;;;;4.77;3.30;;;10.40;1.00;;;;;;5084228;28;20444;-78
2021/12/17 12:12:45;;;;;;;3.57;3.03;;;10.60;1.00;;;;;;5084532;28;20182;-75
2021/12/17 12:15:16;;;;;;;2.90;2.70;;;10.60;1.00;;;;;;5080566;28;20458;-75
2021/12/17 12:17:57;;;;;;;2.93;2.60;;;10.70;1.00;;;;;;5086180;28;20413;-75
2021/12/17 12:20:50;;;;;;;6.80;2.97;;;10.80;1.00;;;;;;5076244;28;20476;-75
2021/12/17 12:23:22;;;;;;;4.47;3.00;;;10.80;1.00;;;;;;5076074;28;20426;-75
2021/12/17 12:26:13;;;;;;;4.07;2.47;;;10.80;1.00;;;;;;5076583;28;20520;-76
2021/12/17 12:28:44;;;;;;;2.53;2.33;;;10.80;1.00;;;;;;5077704;28;20474;-77
2021/12/17 12:31:35;;;;;;;3.10;2.80;;;10.80;1.00;;;;;;5074265;28;20421;-79
2021/12/17 12:34:05;;;;;;;6.00;3.10;;;10.50;1.00;;;;;;5007849;28;20419;-79
2021/12/17 12:36:46;;;;;;;3.77;2.77;;;10.60;1.00;;;;;;5012036;28;20988;-74
2021/12/17 12:39:17;;;;;;;3.77;2.73;;;10.50;1.00;;;;;;5006472;28;20535;-77
2021/12/17 12:42:00;;;;;;;6.20;3.40;;;10.60;1.00;;;;;;5010918;28;20419;-77
2021/12/17 12:44:44;;;;;;;6.57;3.53;;;10.60;1.00;;;;;;5012376;28;20422;-77
2021/12/17 12:47:14;;;;;;;6.57;3.93;;;10.40;1.00;;;;;;5012418;28;20444;-76
2021/12/17 12:49:56;;;;;;;6.03;3.83;;;10.50;1.00;;;;;;5011947;28;20415;-77
2021/12/17 12:52:31;;;;;;;4.57;2.80;;;10.30;1.00;;;;;;4999278;28;20523;-76
2021/12/17 12:55:22;;;;;;;6.23;4.00;;;10.40;1.00;;;;;;5004325;28;20415;-76
2021/12/17 12:57:49;;;;;;;9.10;4.47;;;10.50;1.00;;;;;;5012924;28;20521;-76
2021/12/17 13:00:54;;;;;;;6.63;4.07;;;10.50;1.00;;;;;;5003727;28;20590;-77
2021/12/17 13:03:31;;;;;;;10.00;3.93;;;10.40;1.00;;;;;;4981405;28;20716;-78
2021/12/17 13:05:59;;;;;;;10.40;4.37;;;10.50;1.00;;;;;;4989134;28;20437;-77
2021/12/17 13:08:26;;;;;;;8.53;4.70;;;10.50;1.00;;;;;;4982515;28;20842;-77
2021/12/17 13:10:58;;;;;;;6.90;4.20;;;10.40;1.00;;;;;;5018821;28;20429;-77
2021/12/17 13:21:31;;;;;;;6.10;4.20;;;10.60;1.00;;;;;;5049323;28;20434;-75
2021/12/17 13:24:13;;;;;;;6.23;4.33;;;10.60;1.00;;;;;;5055425;28;20509;-75
2021/12/17 13:27:06;;;;;;;6.03;4.27;;;10.50;1.00;;;;;;5064775;28;20888;-75
2021/12/17 13:29:34;;;;;;;9.40;5.30;;;10.50;1.00;;;;;;5070503;28;20959;-76
2021/12/17 13:32:14;;;;;;;11.37;4.10;;;10.50;1.00;;;;;;5059924;28;20429;-75
2021/12/17 13:34:49;;;;;;;6.70;3.80;;;10.50;1.00;;;;;;5057330;28;20410;-75
2021/12/17 13:37:21;;;;;;;5.60;3.70;;;10.60;1.00;;;;;;5071087;28;20931;-75
2021/12/17 13:39:56;;;;;;;3.63;3.00;;;10.40;1.00;;;;;;5067308;28;20507;-76
2021/12/17 13:42:32;;;;;;;9.60;3.87;;;10.50;1.00;;;;;;5082409;28;20771;-76
2021/12/17 13:45:19;;;;;;;6.83;4.10;;;10.40;1.00;;;;;;5088828;28;20401;-79
2021/12/17 13:47:58;;;;;;;5.23;3.80;;;10.50;1.00;;;;;;5074328;28;20923;-77
2021/12/17 13:51:03;;;;;;;13.87;4.43;;;10.40;1.00;;;;;;5090551;28;20397;-77
2021/12/17 13:53:46;;;;;;;6.90;4.33;;;10.40;1.00;;;;;;5073005;28;20516;-78
2021/12/17 13:56:17;;;;;;;5.83;3.53;;;10.50;1.00;;;;;;5089688;28;20452;-77
2021/12/17 13:59:02;;;;;;;7.90;4.53;;;10.40;1.00;;;;;;5078925;28;20786;-74
2021/12/17 14:01:28;;;;;;;5.90;3.70;;;10.40;1.00;;;;;;5073159;28;20421;-77
2021/12/17 14:03:54;;;;;;;4.93;3.90;;;10.40;1.00;;;;;;5072197;28;20436;-77
2021/12/17 14:06:27;;;;;;;6.93;3.80;;;10.40;1.00;;;;;;5073623;28;20417;-76
2021/12/17 14:08:53;;;;;;;6.00;3.70;;;10.40;1.00;;;;;;5080863;28;20178;-76
2021/12/17 14:11:25;;;;;;;4.77;4.00;;;10.30;1.00;;;;;;5087291;28;20421;-76
2021/12/17 14:13:51;;;;;;;8.83;3.70;;;10.30;1.00;;;;;;5086157;28;20442;-76
2021/12/17 14:16:54;;;;;;;6.20;3.50;;;10.30;1.00;;;;;;5095959;28;20410;-76
2021/12/17 14:19:39;;;;;;;5.43;3.23;;;10.30;1.00;;;;;;5010802;28;20478;-76
2021/12/17 14:22:27;;;;;;;4.77;3.50;;;10.30;1.00;;;;;;5013873;28;20412;-76
2021/12/17 14:24:59;;;;;;;10.70;4.37;;;10.20;1.00;;;;;;5003170;28;20587;-76
2021/12/17 14:27:44;;;;;;;7.27;4.07;;;10.30;1.00;;;;;;5003239;28;20416;-75
2021/12/17 14:30:11;;;;;;;6.80;3.47;;;10.20;1.00;;;;;;5012128;28;20533;-77
2021/12/17 14:32:42;;;;;;;7.80;3.87;;;10.20;1.00;;;;;;5013286;28;20420;-77
2021/12/17 14:35:08;;;;;;;4.50;3.43;;;10.20;1.00;;;;;;5013173;28;20859;-77
2021/12/17 14:37:54;;;;;;;5.30;3.53;;;10.20;1.00;;;;;;5002521;28;20432;-78
2021/12/17 14:40:32;;;;;;;4.90;3.73;;;10.20;1.00;;;;;;5008302;28;20463;-76
2021/12/17 14:42:59;;;;;;;9.53;3.47;;;10.10;1.00;;;;;;5008177;28;20424;-76
2021/12/17 14:45:33;;;;;;;4.20;3.50;;;10.10;1.00;;;;;;5013569;28;20446;-75
2021/12/17 14:48:22;;;;;;;6.10;3.60;;;10.10;1.00;;;;;;4985952;28;20432;-76
2021/12/17 15:04:49;;;;;;;14.10;3.53;;;10.10;1.00;;;;;;5075412;28;20510;-76
2021/12/17 15:07:18;;;;;;;5.73;3.37;;;10.20;1.00;;;;;;5075009;28;20167;-76
2021/12/17 15:09:45;;;;;;;4.13;2.77;;;10.00;1.00;;;;;;5085998;28;20484;-76
2021/12/17 15:14:55;;;;;;;4.93;3.10;;;10.00;1.00;;;;;;5075454;28;20458;-76
2021/12/17 15:17:21;;;;;;;6.43;2.90;;;10.00;1.00;;;;;;5079819;28;20424;-75
2021/12/17 15:19:52;;;;;;;6.03;3.13;;;10.10;1.00;;;;;;5081826;28;20198;-75
2021/12/17 15:22:22;;;;;;;6.03;2.50;;;9.90;1.00;;;;;;5079247;28;20642;-75
2021/12/17 15:24:48;;;;;;;4.03;2.37;;;9.80;1.00;;;;;;5082230;28;20488;-75
2021/12/17 15:27:14;;;;;;;3.13;2.67;;;9.90;1.00;;;;;;5076559;28;20555;-77
2021/12/17 15:29:40;;;;;;;4.57;2.97;;;10.40;1.00;;;;;;5089372;28;20186;-76
2021/12/17 15:32:07;;;;;;;4.10;2.80;;;9.80;1.00;;;;;;5089492;28;20649;-76
2021/12/17 15:34:33;;;;;;;3.00;2.60;;;9.80;1.00;;;;;;5088547;28;20466;-77
2021/12/17 15:36:59;;;;;;;4.17;2.40;;;9.80;1.00;;;;;;5075609;28;20433;-76
2021/12/17 15:39:27;;;;;;;4.90;3.07;;;10.30;1.00;;;;;;5088561;28;20563;-76
2021/12/17 15:41:58;;;;;;;8.83;3.50;;;10.30;1.00;;;;;;5081580;28;20491;-76
2021/12/17 15:44:26;;;;;;;6.40;2.87;;;9.70;1.00;;;;;;5081466;28;20508;-75
2021/12/17 15:46:53;;;;;;;3.90;2.20;;;9.70;1.00;;;;;;5082360;28;20458;-76
2021/12/17 15:52:46;;;;;;;3.47;2.47;;;9.70;1.00;;;;;;5074733;28;20497;-83
2021/12/17 15:55:21;;;;;;;3.23;2.73;;;9.60;1.00;;;;;;5077623;28;20527;-76
2021/12/17 15:57:47;;;;;;;4.30;2.67;;;9.90;1.00;;;;;;5087496;28;20430;-74
2021/12/17 16:00:15;;;;;;;2.80;2.00;;;9.60;1.00;;;;;;5084664;28;20457;-79
2021/12/17 16:02:46;;;;;;;2.90;2.70;;;9.50;1.00;;;;;;5075410;28;20448;-79
2021/12/17 16:05:40;;;;;;;3.57;2.90;;;9.50;1.00;;;;;;5073218;28;20452;-79
2021/12/17 16:08:10;;;;;;;4.30;2.60;;;9.50;1.00;;;;;;5083643;28;20404;-78
2021/12/17 16:22:04;;;;;;;2.20;2.00;;;9.40;1.00;;;;;;5080964;28;20458;-75
2021/12/17 16:24:30;;;;;;;3.10;2.37;;;;;;;;;;5082992;28;20424;-74
2021/12/17 16:26:56;;;;;;;4.00;2.20;;;9.20;1.00;;;;;;5081838;28;20421;-71
2021/12/17 16:29:23;;;;;;;6.40;2.40;;;9.10;1.00;;;;;;5080409;28;20524;-73
2021/12/17 16:32:10;;;;;;;7.10;2.70;;;9.10;1.00;;;;;;5074410;28;20421;-79
2021/12/17 16:34:40;;;;;;;3.87;2.30;;;9.10;1.00;;;;;;5087477;28;20412;-78
2021/12/17 16:37:06;;;;;;;6.40;1.93;;;9.10;1.00;;;;;;5074342;28;20448;-77
2021/12/17 16:39:32;;;;;;;3.30;1.90;;;9.10;1.00;;;;;;5074262;28;20440;-76
2021/12/17 16:41:58;;;;;;;6.70;2.50;;;9.10;1.00;;;;;;5081148;28;20425;-76
2021/12/17 16:44:41;;;;;;;3.30;2.30;;;9.00;1.00;;;;;;5090191;28;20219;-76
2021/12/17 16:47:23;;;;;;;4.53;2.50;;;9.10;1.00;;;;;;5084844;28;20428;-76
2021/12/17 16:49:59;;;;;;;4.37;2.23;;;9.00;1.00;;;;;;5076044;28;20512;-76
2021/12/17 16:52:30;;;;;;;7.00;2.83;;;9.00;1.00;;;;;;5080511;28;20425;-76
2021/12/17 16:55:00;;;;;;;7.33;2.50;;;9.00;1.00;;;;;;5080593;28;20432;-77
2021/12/17 16:57:28;;;;;;;4.53;2.40;;;8.90;1.00;;;;;;5092999;28;20431;-76